sensor_id;sensor_type;location;lat;lon;timestamp;pressure;altitude;pressure_sealevel;temperature;humidity
50065;BME280;64524;47.848;-122.338;2022-11-22T00:01:23;102176.36;;;9.34;100.00
50065;BME280;64524;47.848;-122.338;2022-11-22T00:03:52;102172.05;;;9.34;100.00
50065;BME280;64524;47.848;-122.338;2022-11-22T00:06:21;102177.25;;;9.35;100.00
50065;BME280;64524;47.848;-122.338;2022-11-22T00:08:50;102167.92;;;9.35;100.00
50065;BME280;64524;47.848;-122.338;2022-11-22T00:11:19;102160.00;;;9.36;100.00
50065;BME280;64524;47.848;-122.338;2022-11-22T00:13:47;102156.30;;;9.34;100.00
50065;BME280;64524;47.848;-122.338;2022-11-22T00:16:17;102158.14;;;9.32;100.00
50065;BME280;64524;47.848;-122.338;2022-11-22T00:18:46;102156.25;;;9.33;100.00
50065;BME280;64524;47.848;-122.338;2022-11-22T00:21:14;102155.08;;;9.34;100.00
50065;BME280;64524;47.848;-122.338;2022-11-22T00:23:44;102155.46;;;9.35;100.00
50065;BME280;64524;47.848;-122.338;2022-11-22T00:26:13;102154.45;;;9.36;100.00
50065;BME280;64524;47.848;-122.338;2022-11-22T00:28:42;102154.41;;;9.34;100.00
50065;BME280;64524;47.848;-122.338;2022-11-22T00:31:11;102164.42;;;9.34;100.00
50065;BME280;64524;47.848;-122.338;2022-11-22T00:33:39;102171.47;;;9.33;100.00
50065;BME280;64524;47.848;-122.338;2022-11-22T00:36:09;102173.63;;;9.31;100.00
50065;BME280;64524;47.848;-122.338;2022-11-22T00:38:38;102172.55;;;9.30;100.00
50065;BME280;64524;47.848;-122.338;2022-11-22T00:41:07;102172.36;;;9.29;100.00
50065;BME280;64524;47.848;-122.338;2022-11-22T00:43:36;102164.60;;;9.30;100.00
50065;BME280;64524;47.848;-122.338;2022-11-22T00:46:05;102161.01;;;9.31;100.00
50065;BME280;64524;47.848;-122.338;2022-11-22T00:48:37;102154.65;;;9.32;100.00
50065;BME280;64524;47.848;-122.338;2022-11-22T00:51:06;102143.44;;;9.33;100.00
50065;BME280;64524;47.848;-122.338;2022-11-22T00:53:35;102137.74;;;9.33;100.00
50065;BME280;64524;47.848;-122.338;2022-11-22T00:56:04;102133.72;;;9.32;100.00
50065;BME280;64524;47.848;-122.338;2022-11-22T00:58:34;102126.20;;;9.29;100.00
50065;BME280;64524;47.848;-122.338;2022-11-22T01:01:02;102123.14;;;9.27;100.00
50065;BME280;64524;47.848;-122.338;2022-11-22T01:03:31;102113.02;;;9.24;100.00
50065;BME280;64524;47.848;-122.338;2022-11-22T01:06:00;102104.35;;;9.23;100.00
50065;BME280;64524;47.848;-122.338;2022-11-22T01:08:29;102102.88;;;9.21;100.00
50065;BME280;64524;47.848;-122.338;2022-11-22T01:10:59;102105.70;;;9.18;100.00
50065;BME280;64524;47.848;-122.338;2022-11-22T01:13:28;102108.27;;;9.13;100.00
50065;BME280;64524;47.848;-122.338;2022-11-22T01:15:58;102104.94;;;9.08;100.00
50065;BME280;64524;47.848;-122.338;2022-11-22T01:18:27;102099.39;;;9.03;100.00
50065;BME280;64524;47.848;-122.338;2022-11-22T01:20:56;102095.99;;;8.95;100.00
50065;BME280;64524;47.848;-122.338;2022-11-22T01:23:24;102095.11;;;8.87;100.00
50065;BME280;64524;47.848;-122.338;2022-11-22T01:25:54;102092.33;;;8.78;100.00
50065;BME280;64524;47.848;-122.338;2022-11-22T01:28:23;102089.80;;;8.71;100.00
50065;BME280;64524;47.848;-122.338;2022-11-22T01:30:52;102085.64;;;8.67;100.00
50065;BME280;64524;47.848;-122.338;2022-11-22T01:33:21;102085.27;;;8.62;100.00
50065;BME280;64524;47.848;-122.338;2022-11-22T01:35:50;102087.91;;;8.55;100.00
50065;BME280;64524;47.848;-122.338;2022-11-22T01:38:20;102087.84;;;8.49;100.00
50065;BME280;64524;47.848;-122.338;2022-11-22T01:40:49;102080.59;;;8.41;100.00
50065;BME280;64524;47.848;-122.338;2022-11-22T01:43:19;102078.28;;;8.32;100.00
50065;BME280;64524;47.848;-122.338;2022-11-22T01:45:52;102078.42;;;8.23;100.00
50065;BME280;64524;47.848;-122.338;2022-11-22T01:48:32;102087.95;;;8.15;100.00
50065;BME280;64524;47.848;-122.338;2022-11-22T01:51:27;102091.85;;;8.10;100.00
50065;BME280;64524;47.848;-122.338;2022-11-22T01:53:57;102091.59;;;8.04;100.00
50065;BME280;64524;47.848;-122.338;2022-11-22T01:56:28;102089.16;;;8.00;100.00
50065;BME280;64524;47.848;-122.338;2022-11-22T01:58:59;102086.23;;;7.96;100.00
50065;BME280;64524;47.848;-122.338;2022-11-22T02:01:30;102082.19;;;7.95;100.00
50065;BME280;64524;47.848;-122.338;2022-11-22T02:03:59;102079.02;;;7.93;100.00
50065;BME280;64524;47.848;-122.338;2022-11-22T02:06:36;102085.04;;;7.88;100.00
50065;BME280;64524;47.848;-122.338;2022-11-22T02:09:10;102092.99;;;7.85;100.00
50065;BME280;64524;47.848;-122.338;2022-11-22T02:11:40;102092.55;;;7.83;100.00
50065;BME280;64524;47.848;-122.338;2022-11-22T02:14:11;102086.12;;;7.82;100.00
50065;BME280;64524;47.848;-122.338;2022-11-22T02:16:40;102078.33;;;7.81;100.00
50065;BME280;64524;47.848;-122.338;2022-11-22T02:19:13;102074.11;;;7.79;100.00
50065;BME280;64524;47.848;-122.338;2022-11-22T02:21:43;102069.35;;;7.77;100.00
50065;BME280;64524;47.848;-122.338;2022-11-22T02:24:23;102060.52;;;7.76;100.00
50065;BME280;64524;47.848;-122.338;2022-11-22T02:26:54;102052.71;;;7.75;100.00
50065;BME280;64524;47.848;-122.338;2022-11-22T02:29:23;102054.88;;;7.73;100.00
50065;BME280;64524;47.848;-122.338;2022-11-22T02:31:52;102055.91;;;7.69;100.00
50065;BME280;64524;47.848;-122.338;2022-11-22T02:34:21;102058.34;;;7.66;100.00
50065;BME280;64524;47.848;-122.338;2022-11-22T02:36:51;102059.38;;;7.62;100.00
50065;BME280;64524;47.848;-122.338;2022-11-22T02:39:22;102058.06;;;7.60;100.00
50065;BME280;64524;47.848;-122.338;2022-11-22T02:41:54;102055.17;;;7.61;100.00
50065;BME280;64524;47.848;-122.338;2022-11-22T02:44:24;102050.72;;;7.61;100.00
50065;BME280;64524;47.848;-122.338;2022-11-22T02:46:54;102033.64;;;7.61;100.00
50065;BME280;64524;47.848;-122.338;2022-11-22T02:49:23;102022.56;;;7.61;100.00
50065;BME280;64524;47.848;-122.338;2022-11-22T02:51:52;102011.45;;;7.59;100.00
50065;BME280;64524;47.848;-122.338;2022-11-22T02:54:21;102009.18;;;7.54;100.00
50065;BME280;64524;47.848;-122.338;2022-11-22T02:56:50;102000.09;;;7.51;100.00
50065;BME280;64524;47.848;-122.338;2022-11-22T02:59:19;101987.08;;;7.49;100.00
50065;BME280;64524;47.848;-122.338;2022-11-22T03:01:48;101980.23;;;7.47;100.00
50065;BME280;64524;47.848;-122.338;2022-11-22T03:04:39;101971.99;;;7.44;100.00
50065;BME280;64524;47.848;-122.338;2022-11-22T03:07:08;101965.34;;;7.42;100.00
50065;BME280;64524;47.848;-122.338;2022-11-22T03:09:37;101962.15;;;7.40;100.00
50065;BME280;64524;47.848;-122.338;2022-11-22T03:12:07;101958.60;;;7.38;100.00
50065;BME280;64524;47.848;-122.338;2022-11-22T03:14:36;101956.83;;;7.37;100.00
50065;BME280;64524;47.848;-122.338;2022-11-22T03:17:05;101960.60;;;7.36;100.00
50065;BME280;64524;47.848;-122.338;2022-11-22T03:19:34;101959.71;;;7.35;100.00
50065;BME280;64524;47.848;-122.338;2022-11-22T03:22:03;101966.73;;;7.34;100.00
50065;BME280;64524;47.848;-122.338;2022-11-22T03:24:32;101972.86;;;7.33;100.00
50065;BME280;64524;47.848;-122.338;2022-11-22T03:27:01;101974.02;;;7.31;100.00
50065;BME280;64524;47.848;-122.338;2022-11-22T03:29:31;101977.12;;;7.31;100.00
50065;BME280;64524;47.848;-122.338;2022-11-22T03:32:00;101982.55;;;7.33;100.00
50065;BME280;64524;47.848;-122.338;2022-11-22T03:34:29;101984.86;;;7.34;100.00
50065;BME280;64524;47.848;-122.338;2022-11-22T03:36:58;101990.30;;;7.37;100.00
50065;BME280;64524;47.848;-122.338;2022-11-22T03:39:27;101989.66;;;7.38;100.00
50065;BME280;64524;47.848;-122.338;2022-11-22T03:41:57;101987.92;;;7.42;100.00
50065;BME280;64524;47.848;-122.338;2022-11-22T03:44:26;101985.30;;;7.44;100.00
50065;BME280;64524;47.848;-122.338;2022-11-22T03:46:55;101985.14;;;7.48;100.00
50065;BME280;64524;47.848;-122.338;2022-11-22T03:49:24;101980.70;;;7.53;100.00
50065;BME280;64524;47.848;-122.338;2022-11-22T03:51:54;101976.35;;;7.57;100.00
50065;BME280;64524;47.848;-122.338;2022-11-22T03:54:22;101969.77;;;7.60;100.00
50065;BME280;64524;47.848;-122.338;2022-11-22T03:56:52;101965.37;;;7.62;100.00
50065;BME280;64524;47.848;-122.338;2022-11-22T03:59:21;101959.73;;;7.63;100.00
50065;BME280;64524;47.848;-122.338;2022-11-22T04:01:50;101951.69;;;7.64;100.00
50065;BME280;64524;47.848;-122.338;2022-11-22T04:04:19;101953.57;;;7.64;100.00
50065;BME280;64524;47.848;-122.338;2022-11-22T04:06:48;101947.53;;;7.64;100.00
50065;BME280;64524;47.848;-122.338;2022-11-22T04:09:18;101951.33;;;7.64;100.00
50065;BME280;64524;47.848;-122.338;2022-11-22T04:11:47;101949.05;;;7.67;100.00
50065;BME280;64524;47.848;-122.338;2022-11-22T04:14:16;101945.01;;;7.69;100.00
50065;BME280;64524;47.848;-122.338;2022-11-22T04:17:04;101929.96;;;7.73;100.00
50065;BME280;64524;47.848;-122.338;2022-11-22T04:19:34;101918.35;;;7.75;100.00
50065;BME280;64524;47.848;-122.338;2022-11-22T04:22:03;101906.52;;;7.77;100.00
50065;BME280;64524;47.848;-122.338;2022-11-22T04:24:33;101899.85;;;7.79;100.00
50065;BME280;64524;47.848;-122.338;2022-11-22T04:27:20;101903.70;;;7.80;100.00
50065;BME280;64524;47.848;-122.338;2022-11-22T04:29:49;101895.18;;;7.82;100.00
50065;BME280;64524;47.848;-122.338;2022-11-22T04:32:19;101884.40;;;7.84;100.00
50065;BME280;64524;47.848;-122.338;2022-11-22T04:35:06;101885.69;;;7.86;100.00
50065;BME280;64524;47.848;-122.338;2022-11-22T04:37:35;101891.33;;;7.89;100.00
50065;BME280;64524;47.848;-122.338;2022-11-22T04:40:05;101891.09;;;7.92;100.00
50065;BME280;64524;47.848;-122.338;2022-11-22T04:42:34;101888.23;;;7.93;100.00
50065;BME280;64524;47.848;-122.338;2022-11-22T04:45:21;101889.70;;;7.96;100.00
50065;BME280;64524;47.848;-122.338;2022-11-22T04:47:51;101888.92;;;7.98;100.00
50065;BME280;64524;47.848;-122.338;2022-11-22T04:50:30;101890.80;;;8.02;100.00
50065;BME280;64524;47.848;-122.338;2022-11-22T04:53:17;101889.58;;;8.05;100.00
50065;BME280;64524;47.848;-122.338;2022-11-22T04:55:46;101898.53;;;8.09;100.00
50065;BME280;64524;47.848;-122.338;2022-11-22T04:58:15;101904.05;;;8.13;100.00
50065;BME280;64524;47.848;-122.338;2022-11-22T05:00:44;101905.88;;;8.16;100.00
50065;BME280;64524;47.848;-122.338;2022-11-22T05:03:13;101908.91;;;8.18;100.00
50065;BME280;64524;47.848;-122.338;2022-11-22T05:05:43;101908.48;;;8.20;100.00
50065;BME280;64524;47.848;-122.338;2022-11-22T05:08:12;101905.90;;;8.21;100.00
50065;BME280;64524;47.848;-122.338;2022-11-22T05:10:42;101903.56;;;8.23;100.00
50065;BME280;64524;47.848;-122.338;2022-11-22T05:13:39;101902.61;;;8.25;100.00
50065;BME280;64524;47.848;-122.338;2022-11-22T05:16:08;101899.58;;;8.26;100.00
50065;BME280;64524;47.848;-122.338;2022-11-22T05:18:37;101896.52;;;8.28;100.00
50065;BME280;64524;47.848;-122.338;2022-11-22T05:21:11;101894.19;;;8.30;100.00
50065;BME280;64524;47.848;-122.338;2022-11-22T05:23:40;101886.33;;;8.32;100.00
50065;BME280;64524;47.848;-122.338;2022-11-22T05:26:23;101894.29;;;8.33;100.00
50065;BME280;64524;47.848;-122.338;2022-11-22T05:28:52;101900.55;;;8.34;100.00
50065;BME280;64524;47.848;-122.338;2022-11-22T05:31:24;101898.14;;;8.34;100.00
50065;BME280;64524;47.848;-122.338;2022-11-22T05:33:54;101892.41;;;8.33;100.00
50065;BME280;64524;47.848;-122.338;2022-11-22T05:36:23;101888.38;;;8.32;100.00
50065;BME280;64524;47.848;-122.338;2022-11-22T05:41:08;101878.73;;;8.32;100.00
50065;BME280;64524;47.848;-122.338;2022-11-22T05:43:37;101875.36;;;8.30;100.00
50065;BME280;64524;47.848;-122.338;2022-11-22T05:46:27;101873.39;;;8.28;100.00
50065;BME280;64524;47.848;-122.338;2022-11-22T05:48:57;101870.38;;;8.26;100.00
50065;BME280;64524;47.848;-122.338;2022-11-22T05:51:27;101872.98;;;8.22;100.00
50065;BME280;64524;47.848;-122.338;2022-11-22T05:54:01;101868.36;;;8.19;100.00
50065;BME280;64524;47.848;-122.338;2022-11-22T05:56:30;101868.95;;;8.16;100.00
50065;BME280;64524;47.848;-122.338;2022-11-22T05:58:59;101867.46;;;8.14;100.00
50065;BME280;64524;47.848;-122.338;2022-11-22T06:01:28;101863.58;;;8.11;100.00
50065;BME280;64524;47.848;-122.338;2022-11-22T06:03:56;101854.83;;;8.08;100.00
50065;BME280;64524;47.848;-122.338;2022-11-22T06:06:25;101855.20;;;8.04;100.00
50065;BME280;64524;47.848;-122.338;2022-11-22T06:08:54;101854.24;;;8.02;100.00
50065;BME280;64524;47.848;-122.338;2022-11-22T06:11:25;101846.86;;;7.99;100.00
50065;BME280;64524;47.848;-122.338;2022-11-22T06:13:58;101843.23;;;7.94;100.00
50065;BME280;64524;47.848;-122.338;2022-11-22T06:16:27;101840.62;;;7.90;100.00
50065;BME280;64524;47.848;-122.338;2022-11-22T06:18:56;101846.22;;;7.87;100.00
50065;BME280;64524;47.848;-122.338;2022-11-22T06:21:25;101843.89;;;7.85;100.00
50065;BME280;64524;47.848;-122.338;2022-11-22T06:23:55;101838.85;;;7.84;100.00
50065;BME280;64524;47.848;-122.338;2022-11-22T06:26:25;101838.23;;;7.82;100.00
50065;BME280;64524;47.848;-122.338;2022-11-22T06:28:54;101840.23;;;7.80;100.00
50065;BME280;64524;47.848;-122.338;2022-11-22T06:31:25;101835.67;;;7.78;100.00
50065;BME280;64524;47.848;-122.338;2022-11-22T06:33:56;101833.39;;;7.77;100.00
50065;BME280;64524;47.848;-122.338;2022-11-22T06:36:31;101832.98;;;7.76;100.00
50065;BME280;64524;47.848;-122.338;2022-11-22T06:39:00;101835.54;;;7.75;100.00
50065;BME280;64524;47.848;-122.338;2022-11-22T06:41:34;101834.33;;;7.75;100.00
50065;BME280;64524;47.848;-122.338;2022-11-22T06:44:07;101831.57;;;7.75;100.00
50065;BME280;64524;47.848;-122.338;2022-11-22T06:46:36;101835.04;;;7.76;100.00
50065;BME280;64524;47.848;-122.338;2022-11-22T06:49:06;101832.42;;;7.75;100.00
50065;BME280;64524;47.848;-122.338;2022-11-22T06:51:34;101833.23;;;7.73;100.00
50065;BME280;64524;47.848;-122.338;2022-11-22T06:54:03;101835.38;;;7.71;100.00
50065;BME280;64524;47.848;-122.338;2022-11-22T06:56:37;101837.14;;;7.67;100.00
50065;BME280;64524;47.848;-122.338;2022-11-22T06:59:07;101839.61;;;7.65;100.00
50065;BME280;64524;47.848;-122.338;2022-11-22T07:01:36;101832.41;;;7.62;100.00
50065;BME280;64524;47.848;-122.338;2022-11-22T07:04:05;101829.92;;;7.60;100.00
50065;BME280;64524;47.848;-122.338;2022-11-22T07:06:36;101828.35;;;7.59;100.00
50065;BME280;64524;47.848;-122.338;2022-11-22T07:09:08;101823.32;;;7.59;100.00
50065;BME280;64524;47.848;-122.338;2022-11-22T07:11:39;101818.95;;;7.57;100.00
50065;BME280;64524;47.848;-122.338;2022-11-22T07:14:08;101818.20;;;7.56;100.00
50065;BME280;64524;47.848;-122.338;2022-11-22T07:16:37;101814.16;;;7.55;100.00
50065;BME280;64524;47.848;-122.338;2022-11-22T07:19:06;101817.20;;;7.53;100.00
50065;BME280;64524;47.848;-122.338;2022-11-22T07:21:35;101815.67;;;7.54;100.00
50065;BME280;64524;47.848;-122.338;2022-11-22T07:24:07;101811.84;;;7.52;100.00
50065;BME280;64524;47.848;-122.338;2022-11-22T07:26:36;101811.20;;;7.53;100.00
50065;BME280;64524;47.848;-122.338;2022-11-22T07:29:05;101820.25;;;7.55;100.00
50065;BME280;64524;47.848;-122.338;2022-11-22T07:31:33;101815.48;;;7.57;100.00
50065;BME280;64524;47.848;-122.338;2022-11-22T07:34:03;101819.39;;;7.59;100.00
50065;BME280;64524;47.848;-122.338;2022-11-22T07:36:31;101815.87;;;7.62;100.00
50065;BME280;64524;47.848;-122.338;2022-11-22T07:39:02;101816.98;;;7.64;100.00
50065;BME280;64524;47.848;-122.338;2022-11-22T07:41:30;101809.84;;;7.66;100.00
50065;BME280;64524;47.848;-122.338;2022-11-22T07:43:59;101807.33;;;7.68;100.00
50065;BME280;64524;47.848;-122.338;2022-11-22T07:46:29;101803.80;;;7.71;100.00
50065;BME280;64524;47.848;-122.338;2022-11-22T07:48:59;101808.40;;;7.74;100.00
50065;BME280;64524;47.848;-122.338;2022-11-22T07:51:28;101802.13;;;7.76;100.00
50065;BME280;64524;47.848;-122.338;2022-11-22T07:53:57;101798.09;;;7.79;100.00
50065;BME280;64524;47.848;-122.338;2022-11-22T07:56:26;101792.71;;;7.82;100.00
50065;BME280;64524;47.848;-122.338;2022-11-22T07:58:55;101784.45;;;7.87;100.00
50065;BME280;64524;47.848;-122.338;2022-11-22T08:01:24;101778.91;;;7.91;100.00
50065;BME280;64524;47.848;-122.338;2022-11-22T08:03:53;101770.85;;;7.96;100.00
50065;BME280;64524;47.848;-122.338;2022-11-22T08:06:21;101762.56;;;8.01;100.00
50065;BME280;64524;47.848;-122.338;2022-11-22T08:08:50;101757.04;;;8.05;100.00
50065;BME280;64524;47.848;-122.338;2022-11-22T08:11:26;101755.01;;;8.11;100.00
50065;BME280;64524;47.848;-122.338;2022-11-22T08:13:54;101753.14;;;8.16;100.00
50065;BME280;64524;47.848;-122.338;2022-11-22T08:16:23;101757.16;;;8.22;100.00
50065;BME280;64524;47.848;-122.338;2022-11-22T08:18:51;101752.02;;;8.28;100.00
50065;BME280;64524;47.848;-122.338;2022-11-22T08:21:20;101749.27;;;8.33;100.00
50065;BME280;64524;47.848;-122.338;2022-11-22T08:23:49;101742.41;;;8.38;100.00
50065;BME280;64524;47.848;-122.338;2022-11-22T08:26:17;101736.53;;;8.42;100.00
50065;BME280;64524;47.848;-122.338;2022-11-22T08:28:48;101730.67;;;8.47;100.00
50065;BME280;64524;47.848;-122.338;2022-11-22T08:31:17;101723.06;;;8.52;100.00
50065;BME280;64524;47.848;-122.338;2022-11-22T08:33:46;101714.09;;;8.56;100.00
50065;BME280;64524;47.848;-122.338;2022-11-22T08:36:16;101711.81;;;8.60;100.00
50065;BME280;64524;47.848;-122.338;2022-11-22T08:38:44;101707.09;;;8.64;100.00
50065;BME280;64524;47.848;-122.338;2022-11-22T08:41:14;101706.32;;;8.66;100.00
50065;BME280;64524;47.848;-122.338;2022-11-22T08:43:43;101707.41;;;8.68;100.00
50065;BME280;64524;47.848;-122.338;2022-11-22T08:46:11;101712.99;;;8.70;100.00
50065;BME280;64524;47.848;-122.338;2022-11-22T08:48:40;101723.63;;;8.72;100.00
50065;BME280;64524;47.848;-122.338;2022-11-22T08:51:09;101731.15;;;8.75;100.00
50065;BME280;64524;47.848;-122.338;2022-11-22T08:53:40;101731.21;;;8.76;100.00
50065;BME280;64524;47.848;-122.338;2022-11-22T08:56:11;101722.96;;;8.78;100.00
50065;BME280;64524;47.848;-122.338;2022-11-22T08:58:41;101712.49;;;8.79;100.00
50065;BME280;64524;47.848;-122.338;2022-11-22T09:01:12;101706.31;;;8.80;100.00
50065;BME280;64524;47.848;-122.338;2022-11-22T09:03:42;101695.63;;;8.82;100.00
50065;BME280;64524;47.848;-122.338;2022-11-22T09:06:13;101688.26;;;8.83;100.00
50065;BME280;64524;47.848;-122.338;2022-11-22T09:09:02;101691.98;;;8.86;100.00
50065;BME280;64524;47.848;-122.338;2022-11-22T09:11:51;101690.52;;;8.89;100.00
50065;BME280;64524;47.848;-122.338;2022-11-22T09:14:20;101688.52;;;8.91;100.00
50065;BME280;64524;47.848;-122.338;2022-11-22T09:16:49;101684.75;;;8.92;100.00
50065;BME280;64524;47.848;-122.338;2022-11-22T09:19:18;101679.25;;;8.93;100.00
50065;BME280;64524;47.848;-122.338;2022-11-22T09:21:46;101679.96;;;8.93;100.00
50065;BME280;64524;47.848;-122.338;2022-11-22T09:24:15;101686.23;;;8.95;100.00
50065;BME280;64524;47.848;-122.338;2022-11-22T09:26:44;101685.96;;;8.97;100.00
50065;BME280;64524;47.848;-122.338;2022-11-22T09:29:13;101683.73;;;8.98;100.00
50065;BME280;64524;47.848;-122.338;2022-11-22T09:31:43;101681.73;;;9.00;100.00
50065;BME280;64524;47.848;-122.338;2022-11-22T09:34:12;101680.23;;;9.01;100.00
50065;BME280;64524;47.848;-122.338;2022-11-22T09:36:40;101675.10;;;9.03;100.00
50065;BME280;64524;47.848;-122.338;2022-11-22T09:39:09;101667.20;;;9.05;100.00
50065;BME280;64524;47.848;-122.338;2022-11-22T09:41:57;101668.63;;;9.06;100.00
50065;BME280;64524;47.848;-122.338;2022-11-22T09:47:40;101679.54;;;9.07;100.00
50065;BME280;64524;47.848;-122.338;2022-11-22T09:53:15;101668.29;;;9.06;100.00
50065;BME280;64524;47.848;-122.338;2022-11-22T09:55:52;101676.69;;;9.04;100.00
50065;BME280;64524;47.848;-122.338;2022-11-22T09:58:29;101669.20;;;9.02;100.00
50065;BME280;64524;47.848;-122.338;2022-11-22T10:04:05;101658.70;;;8.99;100.00
50065;BME280;64524;47.848;-122.338;2022-11-22T10:06:41;101660.00;;;8.96;100.00
50065;BME280;64524;47.848;-122.338;2022-11-22T10:12:22;101642.80;;;8.93;100.00
50065;BME280;64524;47.848;-122.338;2022-11-22T10:15:06;101633.91;;;8.91;100.00
50065;BME280;64524;47.848;-122.338;2022-11-22T10:20:31;101640.88;;;8.88;100.00
50065;BME280;64524;47.848;-122.338;2022-11-22T10:23:00;101641.32;;;8.90;100.00
50065;BME280;64524;47.848;-122.338;2022-11-22T10:25:39;101632.38;;;8.92;100.00
50065;BME280;64524;47.848;-122.338;2022-11-22T10:30:48;101633.91;;;8.96;100.00
50065;BME280;64524;47.848;-122.338;2022-11-22T10:52:46;101614.34;;;8.95;100.00
50065;BME280;64524;47.848;-122.338;2022-11-22T10:55:43;101612.15;;;8.91;100.00
50065;BME280;64524;47.848;-122.338;2022-11-22T11:04:09;101592.52;;;8.77;100.00
50065;BME280;64524;47.848;-122.338;2022-11-22T11:06:45;101589.21;;;8.72;100.00
50065;BME280;64524;47.848;-122.338;2022-11-22T11:13:05;101558.56;;;8.59;100.00
50065;BME280;64524;47.848;-122.338;2022-11-22T11:15:47;101552.65;;;8.52;100.00
50065;BME280;64524;47.848;-122.338;2022-11-22T11:18:35;101556.61;;;8.47;100.00
50065;BME280;64524;47.848;-122.338;2022-11-22T11:21:05;101543.52;;;8.43;100.00
50065;BME280;64524;47.848;-122.338;2022-11-22T11:23:34;101540.64;;;8.40;100.00
50065;BME280;64524;47.848;-122.338;2022-11-22T11:31:50;101518.98;;;8.32;100.00
50065;BME280;64524;47.848;-122.338;2022-11-22T11:36:52;101515.18;;;8.27;100.00
50065;BME280;64524;47.848;-122.338;2022-11-22T11:39:30;101518.95;;;8.26;100.00
50065;BME280;64524;47.848;-122.338;2022-11-22T11:42:00;101518.51;;;8.24;100.00
50065;BME280;64524;47.848;-122.338;2022-11-22T11:44:36;101511.02;;;8.21;100.00
50065;BME280;64524;47.848;-122.338;2022-11-22T11:47:04;101503.00;;;8.19;100.00
50065;BME280;64524;47.848;-122.338;2022-11-22T11:49:34;101496.73;;;8.18;100.00
50065;BME280;64524;47.848;-122.338;2022-11-22T11:52:32;101492.58;;;8.17;100.00
50065;BME280;64524;47.848;-122.338;2022-11-22T11:55:01;101482.85;;;8.15;100.00
50065;BME280;64524;47.848;-122.338;2022-11-22T11:57:33;101473.66;;;8.14;100.00
50065;BME280;64524;47.848;-122.338;2022-11-22T12:00:15;101459.49;;;8.13;100.00
50065;BME280;64524;47.848;-122.338;2022-11-22T12:02:46;101452.52;;;8.12;100.00
50065;BME280;64524;47.848;-122.338;2022-11-22T12:07:47;101435.40;;;8.10;100.00
50065;BME280;64524;47.848;-122.338;2022-11-22T12:10:31;101420.17;;;8.09;100.00
50065;BME280;64524;47.848;-122.338;2022-11-22T12:19:20;101408.70;;;8.06;100.00
50065;BME280;64524;47.848;-122.338;2022-11-22T12:24:54;101400.86;;;8.10;100.00
50065;BME280;64524;47.848;-122.338;2022-11-22T12:27:45;101396.86;;;8.14;100.00
50065;BME280;64524;47.848;-122.338;2022-11-22T12:30:14;101393.54;;;8.18;100.00
50065;BME280;64524;47.848;-122.338;2022-11-22T12:32:58;101391.48;;;8.23;100.00
50065;BME280;64524;47.848;-122.338;2022-11-22T12:35:33;101384.05;;;8.29;100.00
50065;BME280;64524;47.848;-122.338;2022-11-22T12:38:25;101376.90;;;8.32;100.00
50065;BME280;64524;47.848;-122.338;2022-11-22T12:40:59;101385.91;;;8.39;100.00
50065;BME280;64524;47.848;-122.338;2022-11-22T12:43:36;101383.47;;;8.42;100.00
50065;BME280;64524;47.848;-122.338;2022-11-22T12:46:29;101374.11;;;8.47;100.00
50065;BME280;64524;47.848;-122.338;2022-11-22T12:49:36;101371.20;;;8.53;100.00
50065;BME280;64524;47.848;-122.338;2022-11-22T12:52:30;101368.87;;;8.56;100.00
50065;BME280;64524;47.848;-122.338;2022-11-22T13:04:18;101365.36;;;8.54;100.00
50065;BME280;64524;47.848;-122.338;2022-11-22T13:06:52;101354.01;;;8.50;100.00
50065;BME280;64524;47.848;-122.338;2022-11-22T13:09:31;101361.98;;;8.45;100.00
50065;BME280;64524;47.848;-122.338;2022-11-22T13:17:15;101366.25;;;8.39;100.00
50065;BME280;64524;47.848;-122.338;2022-11-22T13:19:54;101367.39;;;8.37;100.00
50065;BME280;64524;47.848;-122.338;2022-11-22T13:27:55;101361.56;;;8.27;100.00
50065;BME280;64524;47.848;-122.338;2022-11-22T13:30:29;101359.13;;;8.22;100.00
50065;BME280;64524;47.848;-122.338;2022-11-22T13:32:59;101345.63;;;8.15;100.00
50065;BME280;64524;47.848;-122.338;2022-11-22T13:35:33;101335.27;;;8.09;100.00
50065;BME280;64524;47.848;-122.338;2022-11-22T13:38:13;101321.91;;;8.01;100.00
50065;BME280;64524;47.848;-122.338;2022-11-22T13:40:49;101308.48;;;7.91;100.00
50065;BME280;64524;47.848;-122.338;2022-11-22T13:45:50;101306.06;;;7.85;100.00
50065;BME280;64524;47.848;-122.338;2022-11-22T13:51:09;101299.30;;;7.85;100.00
50065;BME280;64524;47.848;-122.338;2022-11-22T13:53:45;101293.92;;;7.83;100.00
50065;BME280;64524;47.848;-122.338;2022-11-22T14:32:22;101207.89;;;7.85;100.00
50065;BME280;64524;47.848;-122.338;2022-11-22T14:38:03;101239.08;;;7.84;100.00
50065;BME280;64524;47.848;-122.338;2022-11-22T14:40:41;101241.19;;;7.85;100.00
50065;BME280;64524;47.848;-122.338;2022-11-22T14:45:53;101237.27;;;7.81;100.00
50065;BME280;64524;47.848;-122.338;2022-11-22T14:48:35;101240.31;;;7.79;100.00
50065;BME280;64524;47.848;-122.338;2022-11-22T14:51:29;101274.09;;;7.78;100.00
50065;BME280;64524;47.848;-122.338;2022-11-22T14:54:15;101264.06;;;7.77;100.00
50065;BME280;64524;47.848;-122.338;2022-11-22T14:56:47;101232.83;;;7.77;100.00
50065;BME280;64524;47.848;-122.338;2022-11-22T14:59:52;101231.25;;;7.76;100.00
50065;BME280;64524;47.848;-122.338;2022-11-22T15:09:55;101223.41;;;7.73;100.00